createdAt,value
2023-05-15T00:00:22.975Z,13.30
2023-05-15T00:02:49.731Z,13.30
2023-05-15T00:05:16.598Z,13.30
2023-05-15T00:07:43.364Z,13.30
2023-05-15T00:10:10.395Z,13.20
2023-05-15T00:12:37.050Z,13.20
2023-05-15T00:15:03.936Z,13.20
2023-05-15T00:17:30.672Z,13.20
2023-05-15T00:19:59.085Z,13.20
2023-05-15T00:22:26.196Z,13.10
2023-05-15T00:24:53.336Z,13.20
2023-05-15T00:27:19.992Z,13.20
2023-05-15T00:29:46.639Z,13.30
2023-05-15T00:32:13.284Z,13.30
2023-05-15T00:34:40.016Z,13.40
2023-05-15T00:37:08.525Z,13.50
2023-05-15T00:39:36.090Z,13.70
2023-05-15T00:42:04.626Z,13.60
2023-05-15T00:44:32.095Z,13.60
2023-05-15T00:47:01.111Z,13.60
2023-05-15T00:49:29.573Z,13.50
2023-05-15T00:52:02.029Z,13.40
2023-05-15T00:54:28.823Z,13.40
2023-05-15T00:57:03.833Z,13.40
2023-05-15T00:59:31.660Z,13.40
2023-05-15T01:01:58.500Z,13.50
2023-05-15T01:04:25.574Z,13.60
2023-05-15T01:06:55.102Z,13.50
2023-05-15T01:09:25.587Z,13.60
2023-05-15T01:11:54.681Z,13.50
2023-05-15T01:14:21.430Z,13.50
2023-05-15T01:16:48.266Z,13.50
2023-05-15T01:19:15.573Z,13.40
2023-05-15T01:22:08.436Z,13.40
2023-05-15T01:25:00.852Z,13.40
2023-05-15T01:27:33.300Z,13.30
2023-05-15T01:30:12.611Z,13.30
2023-05-15T01:33:05.721Z,13.30
2023-05-15T01:35:43.814Z,13.30
2023-05-15T01:38:24.180Z,13.30
2023-05-15T01:40:57.887Z,13.30
2023-05-15T01:43:28.970Z,13.40
2023-05-15T01:45:58.454Z,13.30
2023-05-15T01:48:27.630Z,13.30
2023-05-15T01:50:57.925Z,13.30
2023-05-15T01:53:25.456Z,13.30
2023-05-15T01:55:53.280Z,13.30
2023-05-15T01:58:25.493Z,13.30
2023-05-15T02:00:52.820Z,13.30
2023-05-15T02:03:21.000Z,13.20
2023-05-15T02:05:48.144Z,13.10
2023-05-15T02:08:15.744Z,13.20
2023-05-15T02:10:43.596Z,13.20
2023-05-15T02:13:11.219Z,13.30
2023-05-15T02:15:38.649Z,13.30
2023-05-15T02:18:05.794Z,13.20
2023-05-15T02:20:32.434Z,13.10
2023-05-15T02:22:59.097Z,13.10
2023-05-15T02:25:46.791Z,13.10
2023-05-15T02:28:34.310Z,13.10
2023-05-15T02:31:26.344Z,13.10
2023-05-15T02:34:31.683Z,13.00
2023-05-15T02:37:01.559Z,13.00
2023-05-15T02:39:29.894Z,13.10
2023-05-15T02:41:57.939Z,13.00
2023-05-15T02:44:26.118Z,13.00
2023-05-15T02:46:54.012Z,13.00
2023-05-15T02:49:22.453Z,13.10
2023-05-15T02:51:50.053Z,13.00
2023-05-15T02:54:16.848Z,12.90
2023-05-15T02:56:43.487Z,12.90
2023-05-15T02:59:10.370Z,12.90
2023-05-15T03:01:38.018Z,12.90
2023-05-15T03:04:05.023Z,13.00
2023-05-15T03:06:31.726Z,12.80
2023-05-15T03:08:58.341Z,12.80
2023-05-15T03:11:26.143Z,12.80
2023-05-15T03:13:52.797Z,12.70
2023-05-15T03:16:19.570Z,12.70
2023-05-15T03:18:46.495Z,12.70
2023-05-15T03:21:13.523Z,12.70
2023-05-15T03:23:40.214Z,12.70
2023-05-15T03:26:06.897Z,12.70
2023-05-15T03:28:33.563Z,12.70
2023-05-15T03:31:00.258Z,12.80
2023-05-15T03:33:26.973Z,12.80
2023-05-15T03:35:53.658Z,12.80
2023-05-15T03:38:20.526Z,12.80
2023-05-15T03:40:48.928Z,12.80
2023-05-15T03:43:16.974Z,12.80
2023-05-15T03:45:44.392Z,12.70
2023-05-15T03:48:11.003Z,12.70
2023-05-15T03:50:37.671Z,12.70
2023-05-15T03:53:04.311Z,12.70
2023-05-15T03:55:31.065Z,12.60
2023-05-15T03:57:58.278Z,12.70
2023-05-15T04:00:25.223Z,12.70
2023-05-15T04:02:52.204Z,12.70
2023-05-15T04:05:19.850Z,12.60
2023-05-15T04:07:46.503Z,12.60
2023-05-15T04:10:13.246Z,12.60
2023-05-15T04:12:39.891Z,12.60
2023-05-15T04:15:19.242Z,12.50
2023-05-15T04:17:47.832Z,12.50
2023-05-15T04:20:16.584Z,12.50
2023-05-15T04:22:43.823Z,12.50
2023-05-15T04:25:11.420Z,12.40
2023-05-15T04:27:38.470Z,12.40
2023-05-15T04:30:06.049Z,12.40
2023-05-15T04:32:33.845Z,12.40
2023-05-15T04:35:01.392Z,12.40
2023-05-15T04:37:29.215Z,12.40
2023-05-15T04:39:55.847Z,12.40
2023-05-15T04:42:22.517Z,12.30
2023-05-15T04:44:49.304Z,12.30
2023-05-15T04:47:15.991Z,12.30
2023-05-15T04:49:42.688Z,12.30
2023-05-15T04:52:09.441Z,12.30
2023-05-15T04:54:36.176Z,12.40
2023-05-15T04:57:02.844Z,12.30
2023-05-15T04:59:29.738Z,12.20
2023-05-15T05:01:56.821Z,12.30
2023-05-15T05:04:23.606Z,12.20
2023-05-15T05:06:50.359Z,12.30
2023-05-15T05:09:19.722Z,12.30
2023-05-15T05:11:47.428Z,12.30
2023-05-15T05:14:15.528Z,12.30
2023-05-15T05:16:45.474Z,12.30
2023-05-15T05:19:12.231Z,12.30
2023-05-15T05:21:38.978Z,12.30
2023-05-15T05:24:05.840Z,12.30
2023-05-15T05:26:32.541Z,12.30
2023-05-15T05:28:59.260Z,12.30
2023-05-15T05:31:25.991Z,12.40
2023-05-15T05:33:52.835Z,12.40
2023-05-15T05:36:19.666Z,12.40
2023-05-15T05:38:46.364Z,12.40
2023-05-15T05:41:13.047Z,12.50
2023-05-15T05:43:39.659Z,12.40
2023-05-15T05:46:06.366Z,12.40
2023-05-15T05:48:33.100Z,12.40
2023-05-15T05:50:59.848Z,12.40
2023-05-15T05:53:26.544Z,12.40
2023-05-15T05:55:53.724Z,12.30
2023-05-15T05:58:25.364Z,12.30
2023-05-15T06:00:52.908Z,12.30
2023-05-15T06:03:20.786Z,12.30
2023-05-15T06:05:48.493Z,12.40
2023-05-15T06:08:15.270Z,12.50
2023-05-15T06:10:42.405Z,12.50
2023-05-15T06:13:09.153Z,12.40
2023-05-15T06:15:35.890Z,12.50
2023-05-15T06:18:02.737Z,12.30
2023-05-15T06:20:29.626Z,12.30
2023-05-15T06:22:56.323Z,12.40
2023-05-15T06:25:23.201Z,12.40
2023-05-15T06:27:50.246Z,12.40
2023-05-15T06:30:16.944Z,12.40
2023-05-15T06:32:43.768Z,12.30
2023-05-15T06:35:11.002Z,12.30
2023-05-15T06:37:37.944Z,12.30
2023-05-15T06:40:07.267Z,12.30
2023-05-15T06:42:33.925Z,12.30
2023-05-15T06:45:00.765Z,12.30
2023-05-15T06:47:27.701Z,12.30
2023-05-15T06:49:55.329Z,12.30
2023-05-15T06:52:22.002Z,12.40
2023-05-15T06:54:48.734Z,12.40
2023-05-15T06:57:15.748Z,12.40
2023-05-15T06:59:42.411Z,12.30
2023-05-15T07:02:09.313Z,12.30
2023-05-15T07:04:36.062Z,12.60
2023-05-15T07:07:02.842Z,12.60
2023-05-15T07:09:29.484Z,12.80
2023-05-15T07:11:56.128Z,13.10
2023-05-15T07:14:22.797Z,13.10
2023-05-15T07:16:49.579Z,13.20
2023-05-15T07:19:21.036Z,13.40
2023-05-15T07:21:47.841Z,13.80
2023-05-15T07:24:14.528Z,14.00
2023-05-15T07:26:54.134Z,14.20
2023-05-15T07:29:25.460Z,14.10
2023-05-15T07:31:52.232Z,14.20
2023-05-15T07:34:19.108Z,14.10
2023-05-15T07:36:45.744Z,14.10
2023-05-15T07:39:13.117Z,14.10
2023-05-15T07:41:39.763Z,14.00
2023-05-15T07:44:06.525Z,14.00
2023-05-15T07:46:34.003Z,14.00
2023-05-15T07:49:00.774Z,14.10
2023-05-15T07:51:27.413Z,14.10
2023-05-15T07:53:54.110Z,14.20
2023-05-15T07:56:21.464Z,14.20
2023-05-15T07:58:48.410Z,14.20
2023-05-15T08:01:15.091Z,14.30
2023-05-15T08:03:41.811Z,14.40
2023-05-15T08:06:08.626Z,14.50
2023-05-15T08:08:35.252Z,14.80
2023-05-15T08:11:01.985Z,15.00
2023-05-15T08:13:28.813Z,15.20
2023-05-15T08:15:55.646Z,15.10
2023-05-15T08:18:22.506Z,15.20
2023-05-15T08:20:49.784Z,15.20
2023-05-15T08:23:16.530Z,15.20
2023-05-15T08:25:43.255Z,15.20
2023-05-15T08:28:11.000Z,15.30
2023-05-15T08:30:37.844Z,15.50
2023-05-15T08:33:04.773Z,15.60
2023-05-15T08:35:31.837Z,16.50
2023-05-15T08:37:59.321Z,18.00
2023-05-15T08:43:04.292Z,20.30
2023-05-15T08:45:31.647Z,20.90
2023-05-15T08:47:59.942Z,21.30
2023-05-15T08:50:27.032Z,21.60
2023-05-15T08:52:59.626Z,21.70
2023-05-15T08:55:26.473Z,22.20
2023-05-15T08:57:54.969Z,22.70
2023-05-15T09:00:22.748Z,23.20
2023-05-15T09:02:49.613Z,23.40
2023-05-15T09:05:16.401Z,23.60
2023-05-15T09:07:45.077Z,23.90
2023-05-15T09:10:12.920Z,24.10
2023-05-15T09:12:44.379Z,24.30
2023-05-15T09:15:13.284Z,24.60
2023-05-15T09:17:40.354Z,24.80
2023-05-15T09:20:08.423Z,24.70
2023-05-15T09:22:36.217Z,24.90
2023-05-15T09:25:04.128Z,24.90
2023-05-15T09:27:40.513Z,25.10
2023-05-15T09:30:11.194Z,25.00
2023-05-15T09:32:38.552Z,25.20
2023-05-15T09:35:27.065Z,25.20
2023-05-15T09:38:01.977Z,25.30
2023-05-15T09:40:30.634Z,25.30
2023-05-15T09:42:58.129Z,25.10
2023-05-15T09:45:26.946Z,24.70
2023-05-15T09:47:54.110Z,24.80
2023-05-15T09:50:23.017Z,24.90
2023-05-15T09:52:50.726Z,24.80
2023-05-15T09:55:19.834Z,24.70
2023-05-15T09:58:24.943Z,24.90
2023-05-15T10:00:51.595Z,25.00
2023-05-15T10:03:20.375Z,24.90
2023-05-15T10:05:47.353Z,25.20
2023-05-15T10:08:15.603Z,25.10
2023-05-15T10:10:43.579Z,25.20
2023-05-15T10:13:11.762Z,25.10
2023-05-15T10:15:39.741Z,25.30
2023-05-15T10:18:07.589Z,25.20
2023-05-15T10:20:35.929Z,25.40
2023-05-15T10:23:06.397Z,25.30
2023-05-15T10:26:04.421Z,25.30
2023-05-15T10:28:31.818Z,25.40
2023-05-15T10:31:01.782Z,25.50
2023-05-15T10:33:29.795Z,25.60
2023-05-15T10:35:58.536Z,25.70
2023-05-15T10:38:26.018Z,25.60
2023-05-15T10:40:59.874Z,24.90
2023-05-15T10:43:34.879Z,25.20
2023-05-15T10:46:03.398Z,25.20
2023-05-15T10:48:30.677Z,25.40
2023-05-15T10:51:01.308Z,25.30
2023-05-15T10:53:27.995Z,25.30
2023-05-15T10:55:54.717Z,25.10
2023-05-15T10:58:24.798Z,24.80
2023-05-15T11:00:51.719Z,24.60
2023-05-15T11:03:47.835Z,24.60
2023-05-15T11:06:16.175Z,24.70
2023-05-15T11:08:45.114Z,24.90
2023-05-15T11:11:50.267Z,24.70
2023-05-15T11:14:16.988Z,24.90
2023-05-15T11:16:52.954Z,24.80
2023-05-15T11:19:28.752Z,24.70
2023-05-15T11:21:59.280Z,24.90
2023-05-15T11:24:47.166Z,24.90
2023-05-15T11:27:37.238Z,24.70
2023-05-15T11:30:05.451Z,24.90
2023-05-15T11:32:42.692Z,24.70
2023-05-15T11:35:29.111Z,24.60
2023-05-15T11:38:10.550Z,24.70
2023-05-15T11:40:58.945Z,24.70
2023-05-15T11:43:29.404Z,24.60
2023-05-15T11:46:02.676Z,24.90
2023-05-15T11:48:40.342Z,24.90
2023-05-15T11:51:24.777Z,25.00
2023-05-15T11:53:53.419Z,25.20
2023-05-15T11:56:22.852Z,25.10
2023-05-15T11:58:58.022Z,24.90
2023-05-15T12:01:24.656Z,25.00
2023-05-15T12:03:52.269Z,25.00
2023-05-15T12:06:19.228Z,25.10
2023-05-15T12:08:52.378Z,25.10
2023-05-15T12:11:23.255Z,25.20
2023-05-15T12:13:53.999Z,25.40
2023-05-15T12:16:26.224Z,25.30
2023-05-15T12:18:53.205Z,25.20
2023-05-15T12:21:19.911Z,25.10
2023-05-15T12:26:28.664Z,25.30
2023-05-15T12:28:56.177Z,25.30
2023-05-15T12:31:23.124Z,25.00
2023-05-15T12:33:50.053Z,25.10
2023-05-15T12:36:20.965Z,25.00
2023-05-15T12:38:48.298Z,25.00
2023-05-15T12:41:15.119Z,24.50
2023-05-15T12:43:41.909Z,24.20
2023-05-15T12:46:09.613Z,24.20
2023-05-15T12:48:36.673Z,23.90
2023-05-15T12:51:07.947Z,23.90
2023-05-15T12:53:34.991Z,24.10
2023-05-15T12:56:01.945Z,24.30
2023-05-15T12:58:28.627Z,24.40
2023-05-15T13:00:56.882Z,24.20
2023-05-15T13:03:25.346Z,24.30
2023-05-15T13:05:52.271Z,24.50
2023-05-15T13:08:19.127Z,24.60
2023-05-15T13:10:47.104Z,24.50
2023-05-15T13:13:14.235Z,24.20
2023-05-15T13:15:44.526Z,24.10
2023-05-15T13:18:12.948Z,24.00
2023-05-15T13:20:40.599Z,23.80
2023-05-15T13:23:08.332Z,23.80
2023-05-15T13:25:36.005Z,23.80
2023-05-15T13:28:04.700Z,23.80
2023-05-15T13:30:32.612Z,23.60
2023-05-15T13:32:59.332Z,23.50
2023-05-15T13:35:25.923Z,23.60
2023-05-15T13:37:52.833Z,23.70
2023-05-15T13:40:19.795Z,23.90
2023-05-15T13:42:46.467Z,24.10
2023-05-15T13:45:14.993Z,24.10
2023-05-15T13:47:42.435Z,24.30
2023-05-15T13:50:11.814Z,24.30
2023-05-15T13:52:39.104Z,24.00
2023-05-15T13:55:06.967Z,23.80
2023-05-15T13:57:33.680Z,23.50
2023-05-15T14:00:00.357Z,23.30
2023-05-15T14:02:27.306Z,23.30
2023-05-15T14:04:54.113Z,23.40
2023-05-15T14:07:22.820Z,23.60
2023-05-15T14:09:49.837Z,23.80
2023-05-15T14:12:16.483Z,23.90
2023-05-15T14:14:44.744Z,24.00
2023-05-15T14:17:11.478Z,23.90
2023-05-15T14:19:38.115Z,23.80
2023-05-15T14:22:04.882Z,23.80
2023-05-15T14:24:31.558Z,23.80
2023-05-15T14:26:58.256Z,23.80
2023-05-15T14:29:25.167Z,23.70
2023-05-15T14:31:52.044Z,23.60
2023-05-15T14:34:19.742Z,23.50
2023-05-15T14:36:46.669Z,23.40
2023-05-15T14:39:15.468Z,23.20
2023-05-15T14:41:43.268Z,23.00
2023-05-15T14:44:10.414Z,22.70
2023-05-15T14:46:38.027Z,22.60
2023-05-15T14:49:05.332Z,22.50
2023-05-15T14:51:32.327Z,22.30
2023-05-15T14:53:59.050Z,22.30
2023-05-15T14:56:26.103Z,22.10
2023-05-15T14:58:53.662Z,22.10
2023-05-15T15:01:20.739Z,22.00
2023-05-15T15:03:47.947Z,22.00
2023-05-15T15:06:14.843Z,22.00
2023-05-15T15:08:41.522Z,21.80
2023-05-15T15:11:08.758Z,21.80
2023-05-15T15:13:35.404Z,21.60
2023-05-15T15:16:02.015Z,21.40
2023-05-15T15:18:28.826Z,21.30
2023-05-15T15:20:55.633Z,21.30
2023-05-15T15:23:22.936Z,21.30
2023-05-15T15:25:49.562Z,21.40
2023-05-15T15:28:16.201Z,21.40
2023-05-15T15:30:42.842Z,21.30
2023-05-15T15:33:09.596Z,21.30
2023-05-15T15:35:36.337Z,21.00
2023-05-15T15:38:03.551Z,20.90
2023-05-15T15:40:30.300Z,20.70
2023-05-15T15:42:56.993Z,20.60
2023-05-15T15:45:23.626Z,20.60
2023-05-15T15:47:50.444Z,20.70
2023-05-15T15:50:17.137Z,20.60
2023-05-15T15:52:43.811Z,20.40
2023-05-15T15:55:10.645Z,20.20
2023-05-15T15:57:37.577Z,20.30
2023-05-15T16:00:05.371Z,20.30
2023-05-15T16:02:33.790Z,20.20
2023-05-15T16:05:00.474Z,20.20
2023-05-15T16:07:27.108Z,20.20
2023-05-15T16:10:10.045Z,20.00
2023-05-15T16:12:39.096Z,20.00
2023-05-15T16:15:20.681Z,19.90
2023-05-15T16:17:51.320Z,19.70
2023-05-15T16:20:18.207Z,19.60
2023-05-15T16:22:44.859Z,19.60
2023-05-15T16:25:11.580Z,19.50
2023-05-15T16:27:38.341Z,19.40
2023-05-15T16:30:05.735Z,19.40
2023-05-15T16:32:33.881Z,19.20
2023-05-15T16:35:01.006Z,19.20
2023-05-15T16:37:27.798Z,19.10
2023-05-15T16:39:54.449Z,19.00
2023-05-15T16:42:21.110Z,19.00
2023-05-15T16:44:47.829Z,19.00
2023-05-15T16:47:14.533Z,18.90
2023-05-15T16:49:44.027Z,18.90
2023-05-15T16:52:11.406Z,18.70
2023-05-15T16:54:41.405Z,18.60
2023-05-15T16:57:08.207Z,18.60
2023-05-15T16:59:35.031Z,18.60
2023-05-15T17:02:01.720Z,18.50
2023-05-15T17:04:30.773Z,18.60
2023-05-15T17:06:58.846Z,18.40
2023-05-15T17:09:25.677Z,18.20
2023-05-15T17:11:52.365Z,18.30
2023-05-15T17:14:19.064Z,18.20
2023-05-15T17:16:45.765Z,18.10
2023-05-15T17:19:12.868Z,18.00
2023-05-15T17:21:39.731Z,17.70
2023-05-15T17:24:06.712Z,17.60
2023-05-15T17:26:33.427Z,17.60
2023-05-15T17:29:00.384Z,17.50
2023-05-15T17:31:29.106Z,17.40
2023-05-15T17:33:55.830Z,17.30
2023-05-15T17:36:22.537Z,17.30
2023-05-15T17:38:49.172Z,17.30
2023-05-15T17:41:15.835Z,17.20
2023-05-15T17:43:42.480Z,17.10
2023-05-15T17:46:09.267Z,17.10
2023-05-15T17:48:36.256Z,17.00
2023-05-15T17:51:02.994Z,17.10
2023-05-15T17:53:29.629Z,17.00
2023-05-15T17:55:56.304Z,17.00
2023-05-15T17:58:22.957Z,16.90
2023-05-15T18:00:51.379Z,17.00
2023-05-15T18:03:18.159Z,16.90
2023-05-15T18:05:48.149Z,16.90
2023-05-15T18:08:14.878Z,16.90
2023-05-15T18:10:41.563Z,16.70
2023-05-15T18:13:08.256Z,16.60
2023-05-15T18:15:38.016Z,16.50
2023-05-15T18:18:04.966Z,16.40
2023-05-15T18:20:31.902Z,16.30
2023-05-15T18:22:58.565Z,16.30
2023-05-15T18:25:26.520Z,16.20
2023-05-15T18:27:53.648Z,16.20
2023-05-15T18:30:20.472Z,16.10
2023-05-15T18:32:47.175Z,16.20
2023-05-15T18:35:14.040Z,16.00
2023-05-15T18:37:40.738Z,15.90
2023-05-15T18:40:08.092Z,15.90
2023-05-15T18:42:34.834Z,15.80
2023-05-15T18:45:02.089Z,15.70
2023-05-15T18:47:28.922Z,15.80
2023-05-15T18:49:55.686Z,15.60
2023-05-15T18:52:22.605Z,15.60
2023-05-15T18:54:49.365Z,15.60
2023-05-15T18:57:16.044Z,15.60
2023-05-15T18:59:44.452Z,15.60
2023-05-15T19:02:11.259Z,15.40
2023-05-15T19:04:37.926Z,15.40
2023-05-15T19:07:04.890Z,15.30
2023-05-15T19:09:31.518Z,15.40
2023-05-15T19:12:02.322Z,15.30
2023-05-15T19:14:29.098Z,15.20
2023-05-15T19:16:55.860Z,15.20
2023-05-15T19:19:22.712Z,15.10
2023-05-15T19:21:50.666Z,15.10
2023-05-15T19:24:17.520Z,15.10
2023-05-15T19:26:44.279Z,15.10
2023-05-15T19:29:11.028Z,15.00
2023-05-15T19:31:38.895Z,14.90
2023-05-15T19:34:05.859Z,15.00
2023-05-15T19:36:32.599Z,14.90
2023-05-15T19:38:59.317Z,14.90
2023-05-15T19:41:26.196Z,14.90
2023-05-15T19:43:52.994Z,14.80
2023-05-15T19:46:20.046Z,14.80
2023-05-15T19:48:46.770Z,14.60
2023-05-15T19:51:13.510Z,14.70
2023-05-15T19:53:41.117Z,14.60
2023-05-15T19:56:07.752Z,14.60
2023-05-15T19:58:34.413Z,14.60
2023-05-15T20:01:01.012Z,14.50
2023-05-15T20:03:32.806Z,14.50
2023-05-15T20:06:03.284Z,14.40
2023-05-15T20:08:30.220Z,14.40
2023-05-15T20:10:57.233Z,14.40
2023-05-15T20:13:24.366Z,14.30
2023-05-15T20:15:58.061Z,14.30
2023-05-15T20:18:30.357Z,14.20
2023-05-15T20:20:59.078Z,14.30
2023-05-15T20:23:25.820Z,14.20
2023-05-15T20:25:52.457Z,14.20
2023-05-15T20:28:19.168Z,14.20
2023-05-15T20:30:47.352Z,14.10
2023-05-15T20:33:14.381Z,14.10
2023-05-15T20:35:42.605Z,14.00
2023-05-15T20:38:10.453Z,14.00
2023-05-15T20:40:37.369Z,13.90
2023-05-15T20:43:04.204Z,13.90
2023-05-15T20:45:32.345Z,13.80
2023-05-15T20:47:59.150Z,13.80
2023-05-15T20:50:26.580Z,13.70
2023-05-15T20:52:53.382Z,13.60
2023-05-15T20:55:21.474Z,13.60
2023-05-15T20:57:49.473Z,13.70
2023-05-15T21:00:17.457Z,13.60
2023-05-15T21:02:45.711Z,13.60
2023-05-15T21:05:12.505Z,13.60
2023-05-15T21:07:39.477Z,13.60
2023-05-15T21:10:06.751Z,13.60
2023-05-15T21:12:34.185Z,13.60
2023-05-15T21:15:01.794Z,13.50
2023-05-15T21:17:28.660Z,13.40
2023-05-15T21:19:57.447Z,13.30
2023-05-15T21:22:24.616Z,13.40
2023-05-15T21:24:51.603Z,13.40
2023-05-15T21:27:18.430Z,13.30
2023-05-15T21:29:45.829Z,13.30
2023-05-15T21:32:12.725Z,13.30
2023-05-15T21:34:39.620Z,13.40
2023-05-15T21:37:06.305Z,13.30
2023-05-15T21:39:32.923Z,13.20
2023-05-15T21:41:59.524Z,13.10
2023-05-15T21:44:26.190Z,13.00
2023-05-15T21:46:53.201Z,13.10
2023-05-15T21:49:19.890Z,13.10
2023-05-15T21:51:46.654Z,12.90
2023-05-15T21:54:13.466Z,12.90
2023-05-15T21:56:41.036Z,12.90
2023-05-15T21:59:07.782Z,12.80
2023-05-15T22:01:34.537Z,12.80
2023-05-15T22:04:01.290Z,12.80
2023-05-15T22:06:27.965Z,12.80
2023-05-15T22:08:54.558Z,12.80
2023-05-15T22:11:21.723Z,12.70
2023-05-15T22:13:48.333Z,12.60
2023-05-15T22:16:15.094Z,12.60
2023-05-15T22:18:45.330Z,12.60
2023-05-15T22:21:12.094Z,12.50
2023-05-15T22:23:38.837Z,12.50
2023-05-15T22:26:05.525Z,12.50
2023-05-15T22:28:32.174Z,12.50
2023-05-15T22:30:58.812Z,12.50
2023-05-15T22:33:25.570Z,12.60
2023-05-15T22:35:53.143Z,12.50
2023-05-15T22:38:20.499Z,12.50
2023-05-15T22:40:53.708Z,12.30
2023-05-15T22:43:22.024Z,12.50
2023-05-15T22:45:48.754Z,12.50
2023-05-15T22:48:15.661Z,12.50
2023-05-15T22:50:43.701Z,12.50
2023-05-15T22:53:10.554Z,12.50
2023-05-15T22:55:37.253Z,12.50
2023-05-15T22:58:04.102Z,12.50
2023-05-15T23:00:31.357Z,12.50
2023-05-15T23:02:58.167Z,12.50
2023-05-15T23:05:25.190Z,12.50
2023-05-15T23:07:52.667Z,12.50
2023-05-15T23:10:19.503Z,12.40
2023-05-15T23:12:46.290Z,12.40
2023-05-15T23:15:13.467Z,12.30
2023-05-15T23:17:40.589Z,12.40
2023-05-15T23:20:10.388Z,12.40
2023-05-15T23:22:37.252Z,12.40
2023-05-15T23:25:04.255Z,12.40
2023-05-15T23:27:30.961Z,12.40
2023-05-15T23:29:57.872Z,12.30
2023-05-15T23:32:24.613Z,12.30
2023-05-15T23:34:52.047Z,12.20
2023-05-15T23:37:18.891Z,12.20
2023-05-15T23:39:45.647Z,12.10
2023-05-15T23:42:12.426Z,12.10
2023-05-15T23:44:39.131Z,12.10
2023-05-15T23:47:06.598Z,11.90
2023-05-15T23:49:33.663Z,11.90
2023-05-15T23:52:00.578Z,11.70
2023-05-15T23:54:27.841Z,11.70
2023-05-15T23:56:54.688Z,11.70
2023-05-15T23:59:21.357Z,11.70
